sensor_id;sensor_type;location;lat;lon;timestamp;pressure;altitude;pressure_sealevel;temperature;humidity
12781;BME280;6454;43.304;24.344;2022-07-21T00:01:03;100265.31;;;21.67;50.91
12781;BME280;6454;43.304;24.344;2022-07-21T00:03:30;100272.78;;;21.66;50.71
12781;BME280;6454;43.304;24.344;2022-07-21T00:05:57;100266.19;;;21.71;50.80
12781;BME280;6454;43.304;24.344;2022-07-21T00:08:24;100268.03;;;21.82;50.09
12781;BME280;6454;43.304;24.344;2022-07-21T00:10:51;100264.47;;;21.82;50.49
12781;BME280;6454;43.304;24.344;2022-07-21T00:13:19;100269.66;;;21.83;50.11
12781;BME280;6454;43.304;24.344;2022-07-21T00:15:47;100262.16;;;21.84;50.07
12781;BME280;6454;43.304;24.344;2022-07-21T00:18:15;100269.41;;;21.89;50.10
12781;BME280;6454;43.304;24.344;2022-07-21T00:20:42;100240.44;;;21.82;50.21
12781;BME280;6454;43.304;24.344;2022-07-21T00:23:09;100261.19;;;21.92;50.15
12781;BME280;6454;43.304;24.344;2022-07-21T00:25:36;100224.69;;;21.67;50.12
12781;BME280;6454;43.304;24.344;2022-07-21T00:28:04;100275.53;;;21.82;50.51
12781;BME280;6454;43.304;24.344;2022-07-21T00:30:33;100258.97;;;21.66;50.37
12781;BME280;6454;43.304;24.344;2022-07-21T00:33:01;100276.59;;;21.77;50.05
12781;BME280;6454;43.304;24.344;2022-07-21T00:35:28;100274.72;;;21.81;50.59
12781;BME280;6454;43.304;24.344;2022-07-21T00:37:55;100280.72;;;21.83;50.67
12781;BME280;6454;43.304;24.344;2022-07-21T00:40:22;100273.84;;;21.77;51.25
12781;BME280;6454;43.304;24.344;2022-07-21T00:42:49;100281.53;;;21.68;51.45
12781;BME280;6454;43.304;24.344;2022-07-21T00:45:17;100275.25;;;21.71;51.44
12781;BME280;6454;43.304;24.344;2022-07-21T00:47:45;100279.47;;;21.65;51.10
12781;BME280;6454;43.304;24.344;2022-07-21T00:50:16;100273.50;;;21.63;51.39
12781;BME280;6454;43.304;24.344;2022-07-21T00:52:44;100231.84;;;21.37;51.04
12781;BME280;6454;43.304;24.344;2022-07-21T00:55:14;100273.56;;;21.67;51.59
12781;BME280;6454;43.304;24.344;2022-07-21T00:57:42;100271.91;;;21.62;51.15
12781;BME280;6454;43.304;24.344;2022-07-21T01:00:13;100275.81;;;21.61;51.24
12781;BME280;6454;43.304;24.344;2022-07-21T01:02:41;100278.66;;;21.65;51.69
12781;BME280;6454;43.304;24.344;2022-07-21T01:05:10;100278.22;;;21.63;52.22
12781;BME280;6454;43.304;24.344;2022-07-21T01:07:42;100284.09;;;21.61;52.30
12781;BME280;6454;43.304;24.344;2022-07-21T01:10:10;100245.56;;;21.34;52.32
12781;BME280;6454;43.304;24.344;2022-07-21T01:12:38;100278.41;;;21.54;52.48
12781;BME280;6454;43.304;24.344;2022-07-21T01:15:06;100272.44;;;21.52;52.55
12781;BME280;6454;43.304;24.344;2022-07-21T01:17:34;100278.94;;;21.44;51.98
12781;BME280;6454;43.304;24.344;2022-07-21T01:20:04;100276.16;;;21.44;51.77
12781;BME280;6454;43.304;24.344;2022-07-21T01:22:34;100281.50;;;21.37;51.87
12781;BME280;6454;43.304;24.344;2022-07-21T01:25:02;100282.31;;;21.38;51.96
12781;BME280;6454;43.304;24.344;2022-07-21T01:27:30;100276.09;;;21.41;52.03
12781;BME280;6454;43.304;24.344;2022-07-21T01:29:57;100267.00;;;21.40;51.83
12781;BME280;6454;43.304;24.344;2022-07-21T01:32:25;100240.84;;;21.18;52.39
12781;BME280;6454;43.304;24.344;2022-07-21T01:34:52;100269.91;;;21.32;52.29
12781;BME280;6454;43.304;24.344;2022-07-21T01:37:21;100269.84;;;21.28;52.46
12781;BME280;6454;43.304;24.344;2022-07-21T01:39:50;100260.91;;;21.19;52.91
12781;BME280;6454;43.304;24.344;2022-07-21T01:42:34;100266.00;;;21.17;52.93
12781;BME280;6454;43.304;24.344;2022-07-21T01:45:03;100266.91;;;21.21;52.82
12781;BME280;6454;43.304;24.344;2022-07-21T01:47:30;100266.00;;;21.17;53.17
12781;BME280;6454;43.304;24.344;2022-07-21T01:49:57;100269.38;;;21.10;53.81
12781;BME280;6454;43.304;24.344;2022-07-21T01:52:24;100265.00;;;21.09;54.24
12781;BME280;6454;43.304;24.344;2022-07-21T01:54:52;100264.69;;;21.11;54.26
12781;BME280;6454;43.304;24.344;2022-07-21T01:57:19;100265.16;;;21.01;54.25
12781;BME280;6454;43.304;24.344;2022-07-21T01:59:46;100262.28;;;20.97;53.76
12781;BME280;6454;43.304;24.344;2022-07-21T02:02:13;100258.72;;;20.97;53.68
12781;BME280;6454;43.304;24.344;2022-07-21T02:04:40;100251.97;;;20.94;54.61
12781;BME280;6454;43.304;24.344;2022-07-21T02:07:07;100246.25;;;20.87;54.66
12781;BME280;6454;43.304;24.344;2022-07-21T02:09:34;100248.31;;;20.90;54.63
12781;BME280;6454;43.304;24.344;2022-07-21T02:12:03;100245.97;;;20.77;55.09
12781;BME280;6454;43.304;24.344;2022-07-21T02:14:30;100244.88;;;20.66;54.42
12781;BME280;6454;43.304;24.344;2022-07-21T02:16:57;100244.19;;;20.69;53.81
12781;BME280;6454;43.304;24.344;2022-07-21T02:19:24;100241.88;;;20.71;53.94
12781;BME280;6454;43.304;24.344;2022-07-21T02:21:51;100249.69;;;20.69;53.79
12781;BME280;6454;43.304;24.344;2022-07-21T02:24:18;100239.34;;;20.66;53.75
12781;BME280;6454;43.304;24.344;2022-07-21T02:26:45;100222.50;;;20.55;53.58
12781;BME280;6454;43.304;24.344;2022-07-21T02:29:14;100253.78;;;20.75;53.38
12781;BME280;6454;43.304;24.344;2022-07-21T02:31:41;100253.53;;;20.80;53.53
12781;BME280;6454;43.304;24.344;2022-07-21T02:34:08;100243.69;;;20.79;53.50
12781;BME280;6454;43.304;24.344;2022-07-21T02:36:35;100258.22;;;20.64;53.22
12781;BME280;6454;43.304;24.344;2022-07-21T02:39:02;100251.63;;;20.68;53.39
12781;BME280;6454;43.304;24.344;2022-07-21T02:41:29;100246.47;;;20.67;53.40
12781;BME280;6454;43.304;24.344;2022-07-21T02:43:56;100245.06;;;20.73;53.69
12781;BME280;6454;43.304;24.344;2022-07-21T02:46:24;100241.06;;;20.70;53.78
12781;BME280;6454;43.304;24.344;2022-07-21T02:48:51;100240.88;;;20.63;53.70
12781;BME280;6454;43.304;24.344;2022-07-21T02:51:18;100241.13;;;20.58;53.95
12781;BME280;6454;43.304;24.344;2022-07-21T02:53:45;100234.72;;;20.54;53.88
12781;BME280;6454;43.304;24.344;2022-07-21T02:56:11;100243.63;;;20.63;53.52
12781;BME280;6454;43.304;24.344;2022-07-21T02:58:38;100246.75;;;20.62;54.01
12781;BME280;6454;43.304;24.344;2022-07-21T03:01:06;100243.97;;;20.62;53.98
12781;BME280;6454;43.304;24.344;2022-07-21T03:03:36;100250.06;;;20.55;53.87
12781;BME280;6454;43.304;24.344;2022-07-21T03:06:04;100244.69;;;20.59;54.20
12781;BME280;6454;43.304;24.344;2022-07-21T03:08:31;100248.13;;;20.55;53.87
12781;BME280;6454;43.304;24.344;2022-07-21T03:10:58;100242.75;;;20.47;54.08
12781;BME280;6454;43.304;24.344;2022-07-21T03:13:25;100247.38;;;20.43;54.29
12781;BME280;6454;43.304;24.344;2022-07-21T03:15:52;100253.25;;;20.41;54.21
12781;BME280;6454;43.304;24.344;2022-07-21T03:18:19;100257.59;;;20.42;54.27
12781;BME280;6454;43.304;24.344;2022-07-21T03:20:48;100245.19;;;20.48;54.15
12781;BME280;6454;43.304;24.344;2022-07-21T03:23:15;100255.50;;;20.51;53.66
12781;BME280;6454;43.304;24.344;2022-07-21T03:25:42;100258.25;;;20.51;53.71
12781;BME280;6454;43.304;24.344;2022-07-21T03:28:09;100262.34;;;20.58;53.38
12781;BME280;6454;43.304;24.344;2022-07-21T03:30:37;100260.53;;;20.62;54.03
12781;BME280;6454;43.304;24.344;2022-07-21T03:33:04;100251.59;;;20.52;54.13
12781;BME280;6454;43.304;24.344;2022-07-21T03:35:31;100257.84;;;20.65;54.05
12781;BME280;6454;43.304;24.344;2022-07-21T03:38:00;100255.66;;;20.71;54.22
12781;BME280;6454;43.304;24.344;2022-07-21T03:40:28;100261.81;;;20.80;54.54
12781;BME280;6454;43.304;24.344;2022-07-21T03:42:57;100264.31;;;20.85;55.25
12781;BME280;6454;43.304;24.344;2022-07-21T03:45:25;100273.03;;;20.87;55.25
12781;BME280;6454;43.304;24.344;2022-07-21T03:47:55;100274.81;;;20.95;54.70
12781;BME280;6454;43.304;24.344;2022-07-21T03:50:22;100279.91;;;20.93;54.26
12781;BME280;6454;43.304;24.344;2022-07-21T03:52:49;100288.28;;;20.96;53.76
12781;BME280;6454;43.304;24.344;2022-07-21T03:55:18;100282.28;;;20.94;53.93
12781;BME280;6454;43.304;24.344;2022-07-21T03:57:47;100277.84;;;20.90;53.82
12781;BME280;6454;43.304;24.344;2022-07-21T04:00:16;100284.47;;;21.01;53.78
12781;BME280;6454;43.304;24.344;2022-07-21T04:02:44;100283.72;;;21.16;54.50
12781;BME280;6454;43.304;24.344;2022-07-21T04:05:12;100287.91;;;21.26;54.69
12781;BME280;6454;43.304;24.344;2022-07-21T04:07:40;100287.66;;;21.31;54.12
12781;BME280;6454;43.304;24.344;2022-07-21T04:10:08;100285.50;;;21.24;53.81
12781;BME280;6454;43.304;24.344;2022-07-21T04:12:37;100291.91;;;21.28;53.54
12781;BME280;6454;43.304;24.344;2022-07-21T04:15:06;100287.66;;;21.31;53.80
12781;BME280;6454;43.304;24.344;2022-07-21T04:17:34;100286.75;;;21.42;53.50
12781;BME280;6454;43.304;24.344;2022-07-21T04:20:02;100282.59;;;21.48;53.37
12781;BME280;6454;43.304;24.344;2022-07-21T04:22:30;100283.03;;;21.50;53.29
12781;BME280;6454;43.304;24.344;2022-07-21T04:24:57;100287.91;;;21.57;53.23
12781;BME280;6454;43.304;24.344;2022-07-21T04:27:25;100293.25;;;21.50;53.19
12781;BME280;6454;43.304;24.344;2022-07-21T04:29:53;100288.34;;;21.59;53.02
12781;BME280;6454;43.304;24.344;2022-07-21T04:32:20;100290.94;;;21.67;53.48
12781;BME280;6454;43.304;24.344;2022-07-21T04:34:47;100286.03;;;21.76;53.85
12781;BME280;6454;43.304;24.344;2022-07-21T04:37:14;100279.66;;;21.88;53.52
12781;BME280;6454;43.304;24.344;2022-07-21T04:39:41;100285.94;;;22.04;53.34
12781;BME280;6454;43.304;24.344;2022-07-21T04:42:08;100287.06;;;22.19;53.56
12781;BME280;6454;43.304;24.344;2022-07-21T04:44:35;100293.38;;;22.35;53.59
12781;BME280;6454;43.304;24.344;2022-07-21T04:47:03;100291.28;;;22.48;52.44
12781;BME280;6454;43.304;24.344;2022-07-21T04:49:30;100283.50;;;22.53;52.14
12781;BME280;6454;43.304;24.344;2022-07-21T04:51:57;100284.97;;;22.66;51.77
12781;BME280;6454;43.304;24.344;2022-07-21T04:54:24;100280.91;;;22.79;51.30
12781;BME280;6454;43.304;24.344;2022-07-21T04:56:51;100284.25;;;22.88;51.48
12781;BME280;6454;43.304;24.344;2022-07-21T04:59:18;100285.25;;;22.99;51.26
12781;BME280;6454;43.304;24.344;2022-07-21T05:01:45;100279.53;;;23.12;51.06
12781;BME280;6454;43.304;24.344;2022-07-21T05:04:13;100287.25;;;23.22;51.24
12781;BME280;6454;43.304;24.344;2022-07-21T05:06:40;100285.91;;;23.35;51.18
12781;BME280;6454;43.304;24.344;2022-07-21T05:09:07;100292.44;;;23.46;50.80
12781;BME280;6454;43.304;24.344;2022-07-21T05:11:35;100304.50;;;23.57;50.49
12781;BME280;6454;43.304;24.344;2022-07-21T05:14:01;100293.66;;;23.71;50.00
12781;BME280;6454;43.304;24.344;2022-07-21T05:16:28;100301.34;;;23.81;49.92
12781;BME280;6454;43.304;24.344;2022-07-21T05:18:55;100296.41;;;23.94;49.74
12781;BME280;6454;43.304;24.344;2022-07-21T05:21:24;100294.22;;;24.06;49.59
12781;BME280;6454;43.304;24.344;2022-07-21T05:23:50;100295.25;;;24.21;49.15
12781;BME280;6454;43.304;24.344;2022-07-21T05:26:17;100299.81;;;24.32;49.55
12781;BME280;6454;43.304;24.344;2022-07-21T05:28:44;100290.38;;;24.41;49.42
12781;BME280;6454;43.304;24.344;2022-07-21T05:31:11;100294.50;;;24.50;49.38
12781;BME280;6454;43.304;24.344;2022-07-21T05:33:38;100299.75;;;24.59;49.95
12781;BME280;6454;43.304;24.344;2022-07-21T05:36:06;100305.38;;;24.66;50.47
12781;BME280;6454;43.304;24.344;2022-07-21T05:38:35;100299.25;;;24.79;50.35
12781;BME280;6454;43.304;24.344;2022-07-21T05:41:02;100297.06;;;24.95;49.66
12781;BME280;6454;43.304;24.344;2022-07-21T05:43:29;100300.00;;;25.10;49.34
12781;BME280;6454;43.304;24.344;2022-07-21T05:45:56;100298.16;;;25.24;48.20
12781;BME280;6454;43.304;24.344;2022-07-21T05:48:24;100300.72;;;25.40;46.91
12781;BME280;6454;43.304;24.344;2022-07-21T05:50:50;100295.34;;;25.57;46.20
12781;BME280;6454;43.304;24.344;2022-07-21T05:53:17;100302.66;;;25.76;45.16
12781;BME280;6454;43.304;24.344;2022-07-21T05:55:46;100304.75;;;25.90;43.95
12781;BME280;6454;43.304;24.344;2022-07-21T05:58:13;100304.03;;;26.03;44.11
12781;BME280;6454;43.304;24.344;2022-07-21T06:00:41;100302.97;;;26.15;43.82
12781;BME280;6454;43.304;24.344;2022-07-21T06:03:08;100303.88;;;26.30;44.77
12781;BME280;6454;43.304;24.344;2022-07-21T06:05:35;100304.34;;;26.46;44.23
12781;BME280;6454;43.304;24.344;2022-07-21T06:08:02;100306.00;;;26.57;42.59
12781;BME280;6454;43.304;24.344;2022-07-21T06:10:29;100296.91;;;26.71;42.22
12781;BME280;6454;43.304;24.344;2022-07-21T06:12:58;100298.56;;;26.82;41.64
12781;BME280;6454;43.304;24.344;2022-07-21T06:15:24;100301.03;;;26.95;41.16
12781;BME280;6454;43.304;24.344;2022-07-21T06:17:51;100298.25;;;27.02;41.41
12781;BME280;6454;43.304;24.344;2022-07-21T06:20:18;100299.47;;;27.18;41.51
12781;BME280;6454;43.304;24.344;2022-07-21T06:22:45;100292.72;;;27.30;40.46
12781;BME280;6454;43.304;24.344;2022-07-21T06:25:12;100294.38;;;27.41;39.91
12781;BME280;6454;43.304;24.344;2022-07-21T06:27:39;100291.19;;;27.50;40.44
12781;BME280;6454;43.304;24.344;2022-07-21T06:30:09;100290.41;;;27.64;40.54
12781;BME280;6454;43.304;24.344;2022-07-21T06:32:36;100292.41;;;27.81;40.40
12781;BME280;6454;43.304;24.344;2022-07-21T06:35:03;100285.22;;;27.90;38.97
12781;BME280;6454;43.304;24.344;2022-07-21T06:37:30;100288.81;;;28.05;39.29
12781;BME280;6454;43.304;24.344;2022-07-21T06:39:57;100282.41;;;28.15;38.81
12781;BME280;6454;43.304;24.344;2022-07-21T06:42:25;100287.59;;;28.24;37.47
12781;BME280;6454;43.304;24.344;2022-07-21T06:44:52;100287.16;;;28.32;37.32
12781;BME280;6454;43.304;24.344;2022-07-21T06:47:20;100280.81;;;28.32;37.37
12781;BME280;6454;43.304;24.344;2022-07-21T06:49:47;100277.16;;;28.45;37.10
12781;BME280;6454;43.304;24.344;2022-07-21T06:52:14;100281.53;;;28.53;37.56
12781;BME280;6454;43.304;24.344;2022-07-21T06:54:41;100283.47;;;28.60;37.47
12781;BME280;6454;43.304;24.344;2022-07-21T06:57:07;100279.88;;;28.70;37.42
12781;BME280;6454;43.304;24.344;2022-07-21T06:59:34;100279.84;;;28.84;37.23
12781;BME280;6454;43.304;24.344;2022-07-21T07:02:01;100270.59;;;28.94;36.91
12781;BME280;6454;43.304;24.344;2022-07-21T07:04:29;100267.38;;;28.99;36.72
12781;BME280;6454;43.304;24.344;2022-07-21T07:06:56;100270.09;;;29.13;36.44
12781;BME280;6454;43.304;24.344;2022-07-21T07:09:23;100280.03;;;29.18;35.87
12781;BME280;6454;43.304;24.344;2022-07-21T07:11:50;100264.06;;;29.22;35.20
12781;BME280;6454;43.304;24.344;2022-07-21T07:14:18;100266.84;;;29.25;34.59
12781;BME280;6454;43.304;24.344;2022-07-21T07:16:46;100267.97;;;29.35;35.03
12781;BME280;6454;43.304;24.344;2022-07-21T07:19:13;100258.34;;;29.40;34.65
12781;BME280;6454;43.304;24.344;2022-07-21T07:21:41;100257.47;;;29.50;35.20
12781;BME280;6454;43.304;24.344;2022-07-21T07:24:08;100257.81;;;29.59;34.51
12781;BME280;6454;43.304;24.344;2022-07-21T07:26:35;100262.50;;;29.69;34.59
12781;BME280;6454;43.304;24.344;2022-07-21T07:29:02;100250.88;;;29.74;34.46
12781;BME280;6454;43.304;24.344;2022-07-21T07:31:29;100255.63;;;29.84;35.04
12781;BME280;6454;43.304;24.344;2022-07-21T07:33:56;100249.06;;;29.97;34.80
12781;BME280;6454;43.304;24.344;2022-07-21T07:36:23;100254.19;;;30.06;34.64
12781;BME280;6454;43.304;24.344;2022-07-21T07:38:52;100259.66;;;30.17;34.76
12781;BME280;6454;43.304;24.344;2022-07-21T07:41:19;100254.75;;;30.28;34.48
12781;BME280;6454;43.304;24.344;2022-07-21T07:43:46;100259.91;;;30.36;33.36
12781;BME280;6454;43.304;24.344;2022-07-21T07:46:13;100264.16;;;30.48;33.15
12781;BME280;6454;43.304;24.344;2022-07-21T07:48:41;100270.09;;;30.53;32.57
12781;BME280;6454;43.304;24.344;2022-07-21T07:51:08;100266.88;;;30.51;32.74
12781;BME280;6454;43.304;24.344;2022-07-21T07:53:35;100263.16;;;30.61;32.80
12781;BME280;6454;43.304;24.344;2022-07-21T07:56:04;100245.25;;;30.55;32.64
12781;BME280;6454;43.304;24.344;2022-07-21T07:58:32;100258.50;;;30.82;32.81
12781;BME280;6454;43.304;24.344;2022-07-21T08:00:59;100264.56;;;30.77;32.50
12781;BME280;6454;43.304;24.344;2022-07-21T08:03:27;100258.22;;;30.73;33.32
12781;BME280;6454;43.304;24.344;2022-07-21T08:05:55;100258.00;;;30.60;33.61
12781;BME280;6454;43.304;24.344;2022-07-21T08:08:24;100264.09;;;30.51;33.48
12781;BME280;6454;43.304;24.344;2022-07-21T08:10:51;100271.38;;;30.45;33.94
12781;BME280;6454;43.304;24.344;2022-07-21T08:13:20;100265.41;;;30.43;33.84
12781;BME280;6454;43.304;24.344;2022-07-21T08:15:47;100261.34;;;30.48;34.67
12781;BME280;6454;43.304;24.344;2022-07-21T08:18:15;100259.59;;;30.61;32.49
12781;BME280;6454;43.304;24.344;2022-07-21T08:20:43;100257.16;;;30.63;32.76
12781;BME280;6454;43.304;24.344;2022-07-21T08:23:10;100251.69;;;30.52;33.08
12781;BME280;6454;43.304;24.344;2022-07-21T08:25:38;100246.31;;;30.65;33.89
12781;BME280;6454;43.304;24.344;2022-07-21T08:28:04;100252.25;;;30.71;33.77
12781;BME280;6454;43.304;24.344;2022-07-21T08:30:33;100254.88;;;30.85;34.20
12781;BME280;6454;43.304;24.344;2022-07-21T08:33:01;100242.09;;;30.84;33.56
12781;BME280;6454;43.304;24.344;2022-07-21T08:35:29;100247.50;;;30.98;33.08
12781;BME280;6454;43.304;24.344;2022-07-21T08:37:58;100243.31;;;31.09;33.52
12781;BME280;6454;43.304;24.344;2022-07-21T08:40:27;100247.19;;;31.19;33.42
12781;BME280;6454;43.304;24.344;2022-07-21T08:42:54;100239.16;;;31.21;33.78
12781;BME280;6454;43.304;24.344;2022-07-21T08:45:22;100229.72;;;31.35;32.92
12781;BME280;6454;43.304;24.344;2022-07-21T08:47:51;100231.19;;;31.43;33.57
12781;BME280;6454;43.304;24.344;2022-07-21T08:50:18;100232.63;;;31.54;32.96
12781;BME280;6454;43.304;24.344;2022-07-21T08:52:45;100232.00;;;31.66;33.08
12781;BME280;6454;43.304;24.344;2022-07-21T08:55:12;100230.75;;;31.71;32.90
12781;BME280;6454;43.304;24.344;2022-07-21T08:57:39;100228.22;;;31.76;32.47
12781;BME280;6454;43.304;24.344;2022-07-21T09:00:09;100221.09;;;31.95;31.55
12781;BME280;6454;43.304;24.344;2022-07-21T09:02:37;100222.13;;;32.05;32.29
12781;BME280;6454;43.304;24.344;2022-07-21T09:05:07;100221.84;;;32.19;32.17
12781;BME280;6454;43.304;24.344;2022-07-21T09:07:51;100220.13;;;32.25;30.83
12781;BME280;6454;43.304;24.344;2022-07-21T09:10:21;100208.47;;;32.26;30.71
12781;BME280;6454;43.304;24.344;2022-07-21T09:12:51;100212.34;;;32.32;30.95
12781;BME280;6454;43.304;24.344;2022-07-21T09:15:20;100210.38;;;32.49;30.85
12781;BME280;6454;43.304;24.344;2022-07-21T09:18:04;100205.72;;;32.62;29.80
12781;BME280;6454;43.304;24.344;2022-07-21T09:20:33;100205.50;;;32.73;29.74
12781;BME280;6454;43.304;24.344;2022-07-21T09:23:02;100203.91;;;32.72;29.20
12781;BME280;6454;43.304;24.344;2022-07-21T09:25:36;100201.66;;;32.83;29.15
12781;BME280;6454;43.304;24.344;2022-07-21T09:28:13;100206.25;;;32.93;29.20
12781;BME280;6454;43.304;24.344;2022-07-21T09:31:01;100196.72;;;33.06;29.63
12781;BME280;6454;43.304;24.344;2022-07-21T09:33:30;100193.56;;;33.21;29.40
12781;BME280;6454;43.304;24.344;2022-07-21T09:36:02;100184.31;;;33.36;29.50
12781;BME280;6454;43.304;24.344;2022-07-21T09:38:31;100185.66;;;33.32;28.39
12781;BME280;6454;43.304;24.344;2022-07-21T09:41:06;100184.16;;;33.27;28.50
12781;BME280;6454;43.304;24.344;2022-07-21T09:43:37;100187.06;;;33.40;28.19
12781;BME280;6454;43.304;24.344;2022-07-21T09:46:10;100183.19;;;33.34;28.15
12781;BME280;6454;43.304;24.344;2022-07-21T09:48:39;100187.84;;;33.40;27.91
12781;BME280;6454;43.304;24.344;2022-07-21T09:51:24;100178.78;;;33.49;27.73
12781;BME280;6454;43.304;24.344;2022-07-21T09:53:53;100188.88;;;33.46;28.09
12781;BME280;6454;43.304;24.344;2022-07-21T09:56:21;100179.91;;;33.51;27.13
12781;BME280;6454;43.304;24.344;2022-07-21T09:58:50;100179.50;;;33.53;27.43
12781;BME280;6454;43.304;24.344;2022-07-21T10:01:18;100182.47;;;33.62;27.15
12781;BME280;6454;43.304;24.344;2022-07-21T10:03:46;100173.31;;;33.74;26.66
12781;BME280;6454;43.304;24.344;2022-07-21T10:06:17;100169.97;;;33.79;27.53
12781;BME280;6454;43.304;24.344;2022-07-21T10:08:46;100174.41;;;33.93;27.37
12781;BME280;6454;43.304;24.344;2022-07-21T10:11:13;100169.75;;;33.86;26.67
12781;BME280;6454;43.304;24.344;2022-07-21T10:13:41;100146.28;;;33.93;27.01
12781;BME280;6454;43.304;24.344;2022-07-21T10:16:10;100163.69;;;34.16;27.14
12781;BME280;6454;43.304;24.344;2022-07-21T10:18:45;100158.63;;;34.11;26.96
12781;BME280;6454;43.304;24.344;2022-07-21T10:21:38;100161.78;;;33.85;26.69
12781;BME280;6454;43.304;24.344;2022-07-21T10:24:11;100154.66;;;33.80;26.92
12781;BME280;6454;43.304;24.344;2022-07-21T10:26:38;100153.22;;;33.88;27.50
12781;BME280;6454;43.304;24.344;2022-07-21T10:29:05;100150.91;;;33.99;27.54
12781;BME280;6454;43.304;24.344;2022-07-21T10:31:41;100157.72;;;34.14;27.17
12781;BME280;6454;43.304;24.344;2022-07-21T10:34:09;100151.31;;;34.14;26.15
12781;BME280;6454;43.304;24.344;2022-07-21T10:36:46;100146.25;;;34.21;25.85
12781;BME280;6454;43.304;24.344;2022-07-21T10:39:18;100151.47;;;34.35;26.18
12781;BME280;6454;43.304;24.344;2022-07-21T10:41:46;100138.50;;;34.38;26.37
12781;BME280;6454;43.304;24.344;2022-07-21T10:44:39;100139.53;;;34.31;26.28
12781;BME280;6454;43.304;24.344;2022-07-21T10:47:07;100137.84;;;34.34;25.64
12781;BME280;6454;43.304;24.344;2022-07-21T10:49:48;100125.56;;;34.41;26.24
12781;BME280;6454;43.304;24.344;2022-07-21T10:55:21;100132.53;;;34.36;25.93
12781;BME280;6454;43.304;24.344;2022-07-21T10:58:15;100131.66;;;34.52;25.96
12781;BME280;6454;43.304;24.344;2022-07-21T11:00:47;100124.56;;;34.34;25.47
12781;BME280;6454;43.304;24.344;2022-07-21T11:03:17;100107.09;;;34.40;25.84
12781;BME280;6454;43.304;24.344;2022-07-21T11:06:12;100109.56;;;34.38;25.86
12781;BME280;6454;43.304;24.344;2022-07-21T11:08:41;100109.47;;;34.54;26.02
12781;BME280;6454;43.304;24.344;2022-07-21T11:11:11;100108.94;;;34.59;24.88
12781;BME280;6454;43.304;24.344;2022-07-21T11:13:59;100097.97;;;34.73;25.69
12781;BME280;6454;43.304;24.344;2022-07-21T11:19:31;100100.56;;;34.93;25.26
12781;BME280;6454;43.304;24.344;2022-07-21T11:22:01;100103.38;;;34.93;24.93
12781;BME280;6454;43.304;24.344;2022-07-21T11:24:28;100086.47;;;34.93;24.78
12781;BME280;6454;43.304;24.344;2022-07-21T11:26:59;100088.28;;;35.00;24.42
12781;BME280;6454;43.304;24.344;2022-07-21T11:29:26;100085.13;;;35.10;24.53
12781;BME280;6454;43.304;24.344;2022-07-21T11:31:53;100088.81;;;35.20;24.56
12781;BME280;6454;43.304;24.344;2022-07-21T11:34:20;100090.59;;;35.26;24.28
12781;BME280;6454;43.304;24.344;2022-07-21T11:36:47;100083.53;;;35.09;24.13
12781;BME280;6454;43.304;24.344;2022-07-21T11:39:15;100081.91;;;35.21;24.19
12781;BME280;6454;43.304;24.344;2022-07-21T11:41:44;100080.84;;;35.40;24.22
12781;BME280;6454;43.304;24.344;2022-07-21T11:44:22;100079.00;;;35.46;23.80
12781;BME280;6454;43.304;24.344;2022-07-21T11:46:51;100084.50;;;35.62;24.15
12781;BME280;6454;43.304;24.344;2022-07-21T11:49:18;100076.22;;;35.68;24.20
12781;BME280;6454;43.304;24.344;2022-07-21T11:51:47;100072.81;;;35.73;24.26
12781;BME280;6454;43.304;24.344;2022-07-21T11:54:25;100071.63;;;35.83;22.61
12781;BME280;6454;43.304;24.344;2022-07-21T11:56:53;100074.00;;;35.84;23.55
12781;BME280;6454;43.304;24.344;2022-07-21T11:59:22;100074.66;;;35.88;23.30
12781;BME280;6454;43.304;24.344;2022-07-21T12:01:58;100058.63;;;35.85;22.94
12781;BME280;6454;43.304;24.344;2022-07-21T12:04:34;100081.41;;;35.91;22.70
12781;BME280;6454;43.304;24.344;2022-07-21T12:07:02;100069.91;;;35.85;22.99
12781;BME280;6454;43.304;24.344;2022-07-21T12:09:30;100057.50;;;35.83;22.73
12781;BME280;6454;43.304;24.344;2022-07-21T12:11:57;100049.72;;;35.87;22.56
12781;BME280;6454;43.304;24.344;2022-07-21T12:14:43;100059.94;;;35.93;22.30
12781;BME280;6454;43.304;24.344;2022-07-21T12:17:11;100055.41;;;35.96;22.49
12781;BME280;6454;43.304;24.344;2022-07-21T12:19:38;100048.81;;;35.90;22.36
12781;BME280;6454;43.304;24.344;2022-07-21T12:22:06;100043.59;;;35.88;22.14
12781;BME280;6454;43.304;24.344;2022-07-21T12:24:50;100042.69;;;35.91;23.41
12781;BME280;6454;43.304;24.344;2022-07-21T12:27:18;100033.38;;;36.03;23.09
12781;BME280;6454;43.304;24.344;2022-07-21T12:29:46;100044.34;;;35.80;21.96
12781;BME280;6454;43.304;24.344;2022-07-21T12:32:15;100036.84;;;35.86;23.03
12781;BME280;6454;43.304;24.344;2022-07-21T12:35:01;100039.97;;;35.88;22.57
12781;BME280;6454;43.304;24.344;2022-07-21T12:37:56;100043.31;;;35.65;22.72
12781;BME280;6454;43.304;24.344;2022-07-21T12:40:23;100031.69;;;35.63;22.40
12781;BME280;6454;43.304;24.344;2022-07-21T12:42:51;100027.53;;;35.76;22.77
12781;BME280;6454;43.304;24.344;2022-07-21T12:45:30;100018.69;;;35.96;23.33
12781;BME280;6454;43.304;24.344;2022-07-21T12:48:07;100021.66;;;36.14;23.26
12781;BME280;6454;43.304;24.344;2022-07-21T12:50:35;100017.84;;;36.08;22.07
12781;BME280;6454;43.304;24.344;2022-07-21T12:53:04;100024.44;;;35.83;22.45
12781;BME280;6454;43.304;24.344;2022-07-21T12:55:31;100025.56;;;35.86;23.04
12781;BME280;6454;43.304;24.344;2022-07-21T12:57:58;100019.91;;;35.86;21.47
12781;BME280;6454;43.304;24.344;2022-07-21T13:00:26;100023.84;;;35.88;21.36
12781;BME280;6454;43.304;24.344;2022-07-21T13:02:55;100018.97;;;35.89;21.53
12781;BME280;6454;43.304;24.344;2022-07-21T13:05:24;100009.91;;;35.94;21.38